Terminal Aerodrome Forecast
Issued by NWS

Home | Current Version | Previous Version | Text Only | Print | Product List | Glossary On
Versions: 1 2 3 4 5 6 7 8 9 10 11 12 13 14 15 16 17
000
FTUS41 KBTV 201147 CCA
TAFSLK
TAF COR
KSLK 201147Z 2012/2112 23005KT 4SM -SHRA BR OVC008
      TEMPO 2012/2014 34007KT 2SM SHRA BKN005 OVC030
     FM201400 34006KT P6SM BKN015
     FM201700 32008KT P6SM BKN020
     FM202000 33009KT P6SM SCT070
     FM210000 30007KT P6SM FEW200=

USA.gov is the U.S. government's official web portal to all federal, state and local government web resources and services.